sensor_id;sensor_type;location;lat;lon;timestamp;pressure;altitude;pressure_sealevel;temperature;humidity
27643;BME280;15053;48.618;10.024;2023-02-17T00:02:13;95078.69;;;8.50;64.29
27643;BME280;15053;48.618;10.024;2023-02-17T00:04:40;95075.06;;;8.46;64.78
27643;BME280;15053;48.618;10.024;2023-02-17T00:07:07;95073.22;;;8.46;63.93
27643;BME280;15053;48.618;10.024;2023-02-17T00:09:35;95078.16;;;8.48;64.76
27643;BME280;15053;48.618;10.024;2023-02-17T00:12:02;95079.97;;;8.47;64.40
27643;BME280;15053;48.618;10.024;2023-02-17T00:14:28;95075.28;;;8.44;64.49
27643;BME280;15053;48.618;10.024;2023-02-17T00:16:55;95068.78;;;8.42;63.99
27643;BME280;15053;48.618;10.024;2023-02-17T00:19:21;95075.56;;;8.43;64.85
27643;BME280;15053;48.618;10.024;2023-02-17T00:21:53;95076.34;;;8.43;64.46
27643;BME280;15053;48.618;10.024;2023-02-17T00:24:25;95076.56;;;8.42;64.56
27643;BME280;15053;48.618;10.024;2023-02-17T00:26:51;95076.84;;;8.40;64.45
27643;BME280;15053;48.618;10.024;2023-02-17T00:29:18;95070.88;;;8.40;64.45
27643;BME280;15053;48.618;10.024;2023-02-17T00:31:45;95072.41;;;8.41;64.21
27643;BME280;15053;48.618;10.024;2023-02-17T00:34:12;95077.59;;;8.41;64.31
27643;BME280;15053;48.618;10.024;2023-02-17T00:36:39;95072.41;;;8.41;64.02
27643;BME280;15053;48.618;10.024;2023-02-17T00:39:07;95070.88;;;8.40;64.18
27643;BME280;15053;48.618;10.024;2023-02-17T00:41:34;95068.25;;;8.35;64.49
27643;BME280;15053;48.618;10.024;2023-02-17T00:44:01;95068.00;;;8.36;64.47
27643;BME280;15053;48.618;10.024;2023-02-17T00:46:27;95072.38;;;8.36;64.38
27643;BME280;15053;48.618;10.024;2023-02-17T00:48:54;95071.09;;;8.33;64.75
27643;BME280;15053;48.618;10.024;2023-02-17T00:51:20;95069.28;;;8.34;64.87
27643;BME280;15053;48.618;10.024;2023-02-17T00:53:47;95070.56;;;8.31;64.37
27643;BME280;15053;48.618;10.024;2023-02-17T00:56:14;95065.31;;;8.26;64.63
27643;BME280;15053;48.618;10.024;2023-02-17T00:58:42;95070.78;;;8.29;64.30
27643;BME280;15053;48.618;10.024;2023-02-17T01:01:10;95069.50;;;8.27;64.52
27643;BME280;15053;48.618;10.024;2023-02-17T01:03:38;95076.78;;;8.30;64.55
27643;BME280;15053;48.618;10.024;2023-02-17T01:06:09;95073.41;;;8.29;65.12
27643;BME280;15053;48.618;10.024;2023-02-17T01:08:36;95070.78;;;8.29;64.22
27643;BME280;15053;48.618;10.024;2023-02-17T01:11:03;95069.78;;;8.30;64.83
27643;BME280;15053;48.618;10.024;2023-02-17T01:13:30;95070.78;;;8.29;64.21
27643;BME280;15053;48.618;10.024;2023-02-17T01:15:58;95069.25;;;8.28;63.96
27643;BME280;15053;48.618;10.024;2023-02-17T01:18:24;95074.91;;;8.25;64.64
27643;BME280;15053;48.618;10.024;2023-02-17T01:20:51;95065.31;;;8.26;64.19
27643;BME280;15053;48.618;10.024;2023-02-17T01:23:17;95065.56;;;8.24;64.55
27643;BME280;15053;48.618;10.024;2023-02-17T01:25:45;95076.19;;;8.23;65.00
27643;BME280;15053;48.618;10.024;2023-02-17T01:28:17;95059.84;;;8.22;64.99
27643;BME280;15053;48.618;10.024;2023-02-17T01:30:45;95057.25;;;8.22;64.52
27643;BME280;15053;48.618;10.024;2023-02-17T01:33:11;95049.44;;;8.17;65.02
27643;BME280;15053;48.618;10.024;2023-02-17T01:35:38;95049.97;;;8.19;64.99
27643;BME280;15053;48.618;10.024;2023-02-17T01:38:04;95044.78;;;8.19;65.42
27643;BME280;15053;48.618;10.024;2023-02-17T01:40:31;95046.59;;;8.19;65.40
27643;BME280;15053;48.618;10.024;2023-02-17T01:42:57;95049.72;;;8.21;64.63
27643;BME280;15053;48.618;10.024;2023-02-17T01:45:32;95027.66;;;8.18;65.23
27643;BME280;15053;48.618;10.024;2023-02-17T01:48:04;95035.47;;;8.23;65.43
27643;BME280;15053;48.618;10.024;2023-02-17T01:51:14;95037.00;;;8.24;64.83
27643;BME280;15053;48.618;10.024;2023-02-17T01:53:46;95031.81;;;8.24;65.06
27643;BME280;15053;48.618;10.024;2023-02-17T01:56:15;95031.06;;;8.24;65.13
27643;BME280;15053;48.618;10.024;2023-02-17T01:58:54;95031.81;;;8.24;65.39
27643;BME280;15053;48.618;10.024;2023-02-17T02:01:22;95027.19;;;8.26;65.42
27643;BME280;15053;48.618;10.024;2023-02-17T02:03:50;95020.47;;;8.30;65.69
27643;BME280;15053;48.618;10.024;2023-02-17T02:06:20;95021.53;;;8.35;65.61
27643;BME280;15053;48.618;10.024;2023-02-17T02:08:53;95020.25;;;8.37;65.53
27643;BME280;15053;48.618;10.024;2023-02-17T02:11:22;95023.66;;;8.43;65.16
27643;BME280;15053;48.618;10.024;2023-02-17T02:13:49;95013.53;;;8.46;64.91
27643;BME280;15053;48.618;10.024;2023-02-17T02:16:25;95024.97;;;8.50;64.43
27643;BME280;15053;48.618;10.024;2023-02-17T02:19:14;95012.50;;;8.52;64.05
27643;BME280;15053;48.618;10.024;2023-02-17T02:22:17;95014.06;;;8.53;63.36
27643;BME280;15053;48.618;10.024;2023-02-17T02:25:02;95007.31;;;8.52;62.50
27643;BME280;15053;48.618;10.024;2023-02-17T02:33:10;95001.34;;;8.52;62.65
27643;BME280;15053;48.618;10.024;2023-02-17T02:38:13;94999.28;;;8.54;62.48
27643;BME280;15053;48.618;10.024;2023-02-17T02:40:45;94994.09;;;8.54;62.60
27643;BME280;15053;48.618;10.024;2023-02-17T02:43:13;94982.94;;;8.53;62.13
27643;BME280;15053;48.618;10.024;2023-02-17T02:45:40;94995.41;;;8.56;62.88
27643;BME280;15053;48.618;10.024;2023-02-17T02:48:07;94992.03;;;8.56;62.23
27643;BME280;15053;48.618;10.024;2023-02-17T02:58:29;94988.34;;;8.52;63.10
27643;BME280;15053;48.618;10.024;2023-02-17T03:01:19;94990.94;;;8.52;63.08
27643;BME280;15053;48.618;10.024;2023-02-17T03:04:06;94992.53;;;8.53;63.23
27643;BME280;15053;48.618;10.024;2023-02-17T03:06:43;94996.41;;;8.50;62.96
27643;BME280;15053;48.618;10.024;2023-02-17T03:09:19;95000.31;;;8.48;63.45
27643;BME280;15053;48.618;10.024;2023-02-17T03:11:48;94997.72;;;8.48;62.86
27643;BME280;15053;48.618;10.024;2023-02-17T03:14:19;94997.72;;;8.48;62.94
27643;BME280;15053;48.618;10.024;2023-02-17T03:16:46;94996.69;;;8.49;63.75
27643;BME280;15053;48.618;10.024;2023-02-17T03:19:18;94992.50;;;8.48;63.61
27643;BME280;15053;48.618;10.024;2023-02-17T03:21:49;94986.53;;;8.47;63.05
27643;BME280;15053;48.618;10.024;2023-02-17T03:24:16;94988.34;;;8.47;62.88
27643;BME280;15053;48.618;10.024;2023-02-17T03:26:43;94990.16;;;8.46;63.42
27643;BME280;15053;48.618;10.024;2023-02-17T03:29:10;94989.63;;;8.44;63.08
27643;BME280;15053;48.618;10.024;2023-02-17T03:31:37;94995.63;;;8.45;63.72
27643;BME280;15053;48.618;10.024;2023-02-17T03:34:05;94981.06;;;8.39;63.58
27643;BME280;15053;48.618;10.024;2023-02-17T03:36:31;94989.34;;;8.41;63.92
27643;BME280;15053;48.618;10.024;2023-02-17T03:38:58;94988.59;;;8.40;63.94
27643;BME280;15053;48.618;10.024;2023-02-17T03:41:24;94978.22;;;8.40;64.20
27643;BME280;15053;48.618;10.024;2023-02-17T03:43:51;94984.16;;;8.41;63.45
27643;BME280;15053;48.618;10.024;2023-02-17T03:46:17;94975.88;;;8.39;64.41
27643;BME280;15053;48.618;10.024;2023-02-17T03:48:44;94984.69;;;8.38;63.81
27643;BME280;15053;48.618;10.024;2023-02-17T03:51:12;94978.72;;;8.37;64.21
27643;BME280;15053;48.618;10.024;2023-02-17T03:53:39;94970.41;;;8.35;64.50
27643;BME280;15053;48.618;10.024;2023-02-17T03:56:07;94974.84;;;8.35;64.68
27643;BME280;15053;48.618;10.024;2023-02-17T03:58:33;94968.56;;;8.30;64.83
27643;BME280;15053;48.618;10.024;2023-02-17T04:01:00;94976.34;;;8.30;65.09
27643;BME280;15053;48.618;10.024;2023-02-17T04:03:26;94974.75;;;8.24;65.30
27643;BME280;15053;48.618;10.024;2023-02-17T04:05:53;94980.72;;;8.25;64.70
27643;BME280;15053;48.618;10.024;2023-02-17T04:08:20;94978.91;;;8.25;65.87
27643;BME280;15053;48.618;10.024;2023-02-17T04:10:52;94980.25;;;8.28;64.98
27643;BME280;15053;48.618;10.024;2023-02-17T04:13:19;94974.28;;;8.27;65.47
27643;BME280;15053;48.618;10.024;2023-02-17T04:15:46;94961.28;;;8.27;65.51
27643;BME280;15053;48.618;10.024;2023-02-17T04:18:13;94971.66;;;8.27;66.07
27643;BME280;15053;48.618;10.024;2023-02-17T04:20:41;94963.88;;;8.27;65.75
27643;BME280;15053;48.618;10.024;2023-02-17T04:23:09;94974.78;;;8.29;66.38
27643;BME280;15053;48.618;10.024;2023-02-17T04:25:36;94969.59;;;8.29;66.09
27643;BME280;15053;48.618;10.024;2023-02-17T04:28:03;94973.25;;;8.28;66.51
27643;BME280;15053;48.618;10.024;2023-02-17T04:30:30;94984.66;;;8.27;66.46
27643;BME280;15053;48.618;10.024;2023-02-17T04:32:57;94986.22;;;8.28;66.09
27643;BME280;15053;48.618;10.024;2023-02-17T04:35:24;94988.50;;;8.25;66.24
27643;BME280;15053;48.618;10.024;2023-02-17T04:37:51;94984.88;;;8.26;66.54
27643;BME280;15053;48.618;10.024;2023-02-17T04:40:18;94988.50;;;8.25;66.96
27643;BME280;15053;48.618;10.024;2023-02-17T04:42:44;94989.28;;;8.25;66.43
27643;BME280;15053;48.618;10.024;2023-02-17T04:45:12;94980.25;;;8.28;66.23
27643;BME280;15053;48.618;10.024;2023-02-17T04:47:38;94983.88;;;8.27;66.17
27643;BME280;15053;48.618;10.024;2023-02-17T04:50:08;94984.66;;;8.27;66.20
27643;BME280;15053;48.618;10.024;2023-02-17T04:52:35;94969.06;;;8.27;65.69
27643;BME280;15053;48.618;10.024;2023-02-17T04:55:03;94969.06;;;8.27;65.72
27643;BME280;15053;48.618;10.024;2023-02-17T04:57:29;94975.84;;;8.28;66.01
27643;BME280;15053;48.618;10.024;2023-02-17T04:59:56;94965.94;;;8.25;66.12
27643;BME280;15053;48.618;10.024;2023-02-17T05:02:22;94967.22;;;8.23;65.80
27643;BME280;15053;48.618;10.024;2023-02-17T05:04:52;94970.59;;;8.23;65.90
27643;BME280;15053;48.618;10.024;2023-02-17T05:07:19;94975.25;;;8.21;65.88
27643;BME280;15053;48.618;10.024;2023-02-17T05:09:46;94973.72;;;8.20;65.82
27643;BME280;15053;48.618;10.024;2023-02-17T05:12:12;94975.50;;;8.20;65.96
27643;BME280;15053;48.618;10.024;2023-02-17T05:14:39;94969.53;;;8.19;65.66
27643;BME280;15053;48.618;10.024;2023-02-17T05:17:05;94970.59;;;8.18;66.41
27643;BME280;15053;48.618;10.024;2023-02-17T05:19:32;94964.63;;;8.18;66.34
27643;BME280;15053;48.618;10.024;2023-02-17T05:21:58;94964.63;;;8.18;66.18
27643;BME280;15053;48.618;10.024;2023-02-17T05:24:25;94964.63;;;8.18;65.97
27643;BME280;15053;48.618;10.024;2023-02-17T05:26:51;94964.63;;;8.18;67.05
27643;BME280;15053;48.618;10.024;2023-02-17T05:29:18;94967.72;;;8.15;66.96
27643;BME280;15053;48.618;10.024;2023-02-17T05:31:44;94966.66;;;8.16;66.77
27643;BME280;15053;48.618;10.024;2023-02-17T05:34:11;94969.25;;;8.16;66.61
27643;BME280;15053;48.618;10.024;2023-02-17T05:36:38;94958.34;;;8.14;66.86
27643;BME280;15053;48.618;10.024;2023-02-17T05:39:04;94956.03;;;8.12;67.42
27643;BME280;15053;48.618;10.024;2023-02-17T05:41:30;94954.47;;;8.11;67.08
27643;BME280;15053;48.618;10.024;2023-02-17T05:43:57;94958.63;;;8.12;67.14
27643;BME280;15053;48.618;10.024;2023-02-17T05:46:23;94959.66;;;8.11;67.29
27643;BME280;15053;48.618;10.024;2023-02-17T05:48:50;94952.88;;;8.10;67.52
27643;BME280;15053;48.618;10.024;2023-02-17T05:51:16;94954.97;;;8.08;67.13
27643;BME280;15053;48.618;10.024;2023-02-17T05:53:43;94952.63;;;8.07;66.65
27643;BME280;15053;48.618;10.024;2023-02-17T05:56:10;94951.34;;;8.04;67.82
27643;BME280;15053;48.618;10.024;2023-02-17T05:58:36;94952.34;;;7.98;67.52
27643;BME280;15053;48.618;10.024;2023-02-17T06:01:10;94955.94;;;7.97;68.16
27643;BME280;15053;48.618;10.024;2023-02-17T06:03:37;94969.19;;;7.96;67.68
27643;BME280;15053;48.618;10.024;2023-02-17T06:06:04;94967.88;;;7.93;67.38
27643;BME280;15053;48.618;10.024;2023-02-17T06:08:33;94972.50;;;7.91;68.10
27643;BME280;15053;48.618;10.024;2023-02-17T06:10:59;94973.03;;;7.88;68.04
27643;BME280;15053;48.618;10.024;2023-02-17T06:13:26;94976.41;;;7.89;68.03
27643;BME280;15053;48.618;10.024;2023-02-17T06:15:52;94984.66;;;7.86;68.39
27643;BME280;15053;48.618;10.024;2023-02-17T06:18:19;94987.25;;;7.86;68.79
27643;BME280;15053;48.618;10.024;2023-02-17T06:20:45;94982.88;;;7.86;69.11
27643;BME280;15053;48.618;10.024;2023-02-17T06:23:11;94979.25;;;7.87;69.90
27643;BME280;15053;48.618;10.024;2023-02-17T06:25:38;94974.59;;;7.89;69.31
27643;BME280;15053;48.618;10.024;2023-02-17T06:28:04;94979.78;;;7.94;70.01
27643;BME280;15053;48.618;10.024;2023-02-17T06:30:31;94983.69;;;7.97;69.75
27643;BME280;15053;48.618;10.024;2023-02-17T06:32:57;94987.09;;;8.02;69.76
27643;BME280;15053;48.618;10.024;2023-02-17T06:35:24;94980.38;;;8.06;70.54
27643;BME280;15053;48.618;10.024;2023-02-17T06:37:51;94991.53;;;8.07;70.42
27643;BME280;15053;48.618;10.024;2023-02-17T06:40:17;94979.63;;;8.11;70.68
27643;BME280;15053;48.618;10.024;2023-02-17T06:42:44;94987.16;;;8.12;70.83
27643;BME280;15053;48.618;10.024;2023-02-17T06:45:10;94989.75;;;8.12;70.99
27643;BME280;15053;48.618;10.024;2023-02-17T06:47:37;94995.47;;;8.14;71.35
27643;BME280;15053;48.618;10.024;2023-02-17T06:50:04;94990.56;;;8.18;71.01
27643;BME280;15053;48.618;10.024;2023-02-17T06:52:30;94996.78;;;8.22;71.78
27643;BME280;15053;48.618;10.024;2023-02-17T06:54:57;94992.91;;;8.24;71.82
27643;BME280;15053;48.618;10.024;2023-02-17T06:57:23;94992.44;;;8.27;71.40
27643;BME280;15053;48.618;10.024;2023-02-17T06:59:50;94987.53;;;8.31;71.73
27643;BME280;15053;48.618;10.024;2023-02-17T07:02:16;94984.16;;;8.36;71.65
27643;BME280;15053;48.618;10.024;2023-02-17T07:04:43;94993.00;;;8.40;71.37
27643;BME280;15053;48.618;10.024;2023-02-17T07:07:10;94986.53;;;8.42;72.17
27643;BME280;15053;48.618;10.024;2023-02-17T07:09:37;94990.16;;;8.41;72.15
27643;BME280;15053;48.618;10.024;2023-02-17T07:12:04;94988.91;;;8.49;72.33
27643;BME280;15053;48.618;10.024;2023-02-17T07:14:32;94997.19;;;8.51;72.47
27643;BME280;15053;48.618;10.024;2023-02-17T07:16:59;95002.91;;;8.53;72.28
27643;BME280;15053;48.618;10.024;2023-02-17T07:19:25;95004.47;;;8.54;71.40
27643;BME280;15053;48.618;10.024;2023-02-17T07:21:52;95001.63;;;8.55;72.21
27643;BME280;15053;48.618;10.024;2023-02-17T07:24:18;95008.38;;;8.56;71.83
27643;BME280;15053;48.618;10.024;2023-02-17T07:26:45;95006.56;;;8.57;72.07
27643;BME280;15053;48.618;10.024;2023-02-17T07:29:11;95001.63;;;8.55;72.36
27643;BME280;15053;48.618;10.024;2023-02-17T07:31:38;95001.38;;;8.57;72.20
27643;BME280;15053;48.618;10.024;2023-02-17T07:34:04;95006.31;;;8.58;72.54
27643;BME280;15053;48.618;10.024;2023-02-17T07:36:31;95010.72;;;8.63;72.31
27643;BME280;15053;48.618;10.024;2023-02-17T07:38:57;95002.41;;;8.66;72.18
27643;BME280;15053;48.618;10.024;2023-02-17T07:41:25;94994.41;;;8.67;72.41
27643;BME280;15053;48.618;10.024;2023-02-17T07:43:55;95007.66;;;8.76;72.39
27643;BME280;15053;48.618;10.024;2023-02-17T07:46:22;95001.69;;;8.80;71.60
27643;BME280;15053;48.618;10.024;2023-02-17T07:48:49;95008.47;;;8.86;72.16
27643;BME280;15053;48.618;10.024;2023-02-17T07:51:19;95004.84;;;8.93;71.13
27643;BME280;15053;48.618;10.024;2023-02-17T07:53:46;95004.06;;;8.97;71.68
27643;BME280;15053;48.618;10.024;2023-02-17T07:56:14;95000.44;;;9.03;71.28
27643;BME280;15053;48.618;10.024;2023-02-17T07:58:42;95003.53;;;9.05;71.14
27643;BME280;15053;48.618;10.024;2023-02-17T08:01:13;95003.03;;;9.08;71.13
27643;BME280;15053;48.618;10.024;2023-02-17T08:03:40;95003.53;;;9.10;71.02
27643;BME280;15053;48.618;10.024;2023-02-17T08:06:11;95009.81;;;9.14;71.17
27643;BME280;15053;48.618;10.024;2023-02-17T08:08:39;95006.16;;;9.20;70.65
27643;BME280;15053;48.618;10.024;2023-02-17T08:11:24;95016.03;;;9.23;70.89
27643;BME280;15053;48.618;10.024;2023-02-17T08:14:28;95005.13;;;9.26;70.59
27643;BME280;15053;48.618;10.024;2023-02-17T08:16:56;95006.69;;;9.32;70.58
27643;BME280;15053;48.618;10.024;2023-02-17T08:19:22;95022.78;;;9.39;70.60
27643;BME280;15053;48.618;10.024;2023-02-17T08:21:49;95017.06;;;9.42;70.39
27643;BME280;15053;48.618;10.024;2023-02-17T08:24:15;95018.91;;;9.47;70.50
27643;BME280;15053;48.618;10.024;2023-02-17T08:26:42;95015.53;;;9.46;70.31
27643;BME280;15053;48.618;10.024;2023-02-17T08:29:08;95018.63;;;9.54;70.43
27643;BME280;15053;48.618;10.024;2023-02-17T08:31:35;95020.72;;;9.57;70.79
27643;BME280;15053;48.618;10.024;2023-02-17T08:34:05;95020.19;;;9.60;70.52
27643;BME280;15053;48.618;10.024;2023-02-17T08:36:32;95015.28;;;9.58;70.47
27643;BME280;15053;48.618;10.024;2023-02-17T08:38:59;95018.66;;;9.64;71.02
27643;BME280;15053;48.618;10.024;2023-02-17T08:41:28;95018.88;;;9.67;70.49
27643;BME280;15053;48.618;10.024;2023-02-17T08:43:55;95017.56;;;9.70;70.88
27643;BME280;15053;48.618;10.024;2023-02-17T08:46:23;95015.53;;;9.72;70.91
27643;BME280;15053;48.618;10.024;2023-02-17T08:48:49;95027.22;;;9.74;70.83
27643;BME280;15053;48.618;10.024;2023-02-17T08:51:19;95029.03;;;9.74;70.93
27643;BME280;15053;48.618;10.024;2023-02-17T08:53:53;95019.94;;;9.76;71.41
27643;BME280;15053;48.618;10.024;2023-02-17T08:56:21;95029.81;;;9.79;71.42
27643;BME280;15053;48.618;10.024;2023-02-17T08:58:48;95017.06;;;9.83;71.45
27643;BME280;15053;48.618;10.024;2023-02-17T09:01:15;95032.13;;;9.91;71.96
27643;BME280;15053;48.618;10.024;2023-02-17T09:03:44;95029.00;;;9.99;71.84
27643;BME280;15053;48.618;10.024;2023-02-17T09:06:11;95033.66;;;10.07;71.81
27643;BME280;15053;48.618;10.024;2023-02-17T09:08:38;95021.66;;;10.11;72.15
27643;BME280;15053;48.618;10.024;2023-02-17T09:11:07;95030.03;;;10.18;71.82
27643;BME280;15053;48.618;10.024;2023-02-17T09:13:35;95033.13;;;10.20;72.08
27643;BME280;15053;48.618;10.024;2023-02-17T09:16:02;95032.59;;;10.28;72.19
27643;BME280;15053;48.618;10.024;2023-02-17T09:18:29;95034.16;;;10.34;72.28
27643;BME280;15053;48.618;10.024;2023-02-17T09:20:55;95041.41;;;10.42;72.46
27643;BME280;15053;48.618;10.024;2023-02-17T09:23:23;95042.41;;;10.51;72.30
27643;BME280;15053;48.618;10.024;2023-02-17T09:26:00;95040.56;;;10.62;72.67
27643;BME280;15053;48.618;10.024;2023-02-17T09:28:26;95041.56;;;10.71;72.77
27643;BME280;15053;48.618;10.024;2023-02-17T09:30:53;95041.25;;;10.78;73.07
27643;BME280;15053;48.618;10.024;2023-02-17T09:33:19;95038.38;;;10.84;73.41
27643;BME280;15053;48.618;10.024;2023-02-17T09:35:46;95043.28;;;10.91;73.41
27643;BME280;15053;48.618;10.024;2023-02-17T09:38:12;95040.88;;;10.99;74.26
27643;BME280;15053;48.618;10.024;2023-02-17T09:40:48;95041.91;;;11.03;74.49
27643;BME280;15053;48.618;10.024;2023-02-17T09:43:17;95059.34;;;11.08;74.83
27643;BME280;15053;48.618;10.024;2023-02-17T09:45:49;95049.16;;;11.11;74.91
27643;BME280;15053;48.618;10.024;2023-02-17T09:48:19;95060.34;;;11.17;74.81
27643;BME280;15053;48.618;10.024;2023-02-17T09:50:57;95045.69;;;11.21;75.07
27643;BME280;15053;48.618;10.024;2023-02-17T09:53:51;95049.84;;;11.27;74.99
27643;BME280;15053;48.618;10.024;2023-02-17T09:56:30;95055.31;;;11.31;74.39
27643;BME280;15053;48.618;10.024;2023-02-17T09:59:02;95041.44;;;11.35;74.63
27643;BME280;15053;48.618;10.024;2023-02-17T10:01:33;95048.72;;;11.38;74.58
27643;BME280;15053;48.618;10.024;2023-02-17T10:04:14;95056.78;;;11.42;74.12
27643;BME280;15053;48.618;10.024;2023-02-17T10:06:48;95048.97;;;11.42;74.32
27643;BME280;15053;48.618;10.024;2023-02-17T10:09:29;95053.41;;;11.41;74.37
27643;BME280;15053;48.618;10.024;2023-02-17T10:12:03;95055.97;;;11.46;74.48
27643;BME280;15053;48.618;10.024;2023-02-17T10:14:45;95061.69;;;11.48;74.16
27643;BME280;15053;48.618;10.024;2023-02-17T10:17:46;95051.53;;;11.47;74.37
27643;BME280;15053;48.618;10.024;2023-02-17T10:20:14;95052.31;;;11.47;75.12
27643;BME280;15053;48.618;10.024;2023-02-17T10:22:46;95057.78;;;11.51;75.11
27643;BME280;15053;48.618;10.024;2023-02-17T10:25:17;95069.50;;;11.53;76.35
27643;BME280;15053;48.618;10.024;2023-02-17T10:28:07;95065.03;;;11.54;76.98
27643;BME280;15053;48.618;10.024;2023-02-17T10:33:22;95067.94;;;11.52;78.85
27643;BME280;15053;48.618;10.024;2023-02-17T10:36:10;95067.97;;;11.47;79.29
27643;BME280;15053;48.618;10.024;2023-02-17T10:41:32;95054.72;;;11.39;80.58
27643;BME280;15053;48.618;10.024;2023-02-17T10:44:02;95060.19;;;11.37;81.44
27643;BME280;15053;48.618;10.024;2023-02-17T10:46:31;95046.41;;;11.37;81.41
27643;BME280;15053;48.618;10.024;2023-02-17T10:48:58;95058.13;;;11.39;81.61
27643;BME280;15053;48.618;10.024;2023-02-17T10:51:28;95055.72;;;11.43;81.63
27643;BME280;15053;48.618;10.024;2023-02-17T10:54:24;95050.78;;;11.41;81.67
27643;BME280;15053;48.618;10.024;2023-02-17T10:56:56;95049.44;;;11.49;81.46
27643;BME280;15053;48.618;10.024;2023-02-17T10:59:32;95053.31;;;11.51;81.26
27643;BME280;15053;48.618;10.024;2023-02-17T11:02:20;95053.31;;;11.56;80.68
27643;BME280;15053;48.618;10.024;2023-02-17T11:04:50;95054.31;;;11.60;79.55
27643;BME280;15053;48.618;10.024;2023-02-17T11:07:22;95025.59;;;11.60;79.82
27643;BME280;15053;48.618;10.024;2023-02-17T11:09:59;95030.75;;;11.70;79.39
27643;BME280;15053;48.618;10.024;2023-02-17T11:12:37;95044.28;;;11.77;78.66
27643;BME280;15053;48.618;10.024;2023-02-17T11:15:14;95046.91;;;11.77;78.64
27643;BME280;15053;48.618;10.024;2023-02-17T11:17:42;95038.00;;;11.78;77.96
27643;BME280;15053;48.618;10.024;2023-02-17T11:22:41;95035.91;;;11.80;77.82
27643;BME280;15053;48.618;10.024;2023-02-17T11:25:30;95035.38;;;11.83;78.06
27643;BME280;15053;48.618;10.024;2023-02-17T11:27:59;95029.75;;;11.95;77.20
27643;BME280;15053;48.618;10.024;2023-02-17T11:30:27;95022.03;;;12.14;76.80
27643;BME280;15053;48.618;10.024;2023-02-17T11:32:55;95014.84;;;12.24;76.15
27643;BME280;15053;48.618;10.024;2023-02-17T11:38:08;95002.06;;;12.23;75.84
27643;BME280;15053;48.618;10.024;2023-02-17T11:40:58;95016.19;;;12.46;74.61
27643;BME280;15053;48.618;10.024;2023-02-17T11:43:26;95017.50;;;12.43;74.77
27643;BME280;15053;48.618;10.024;2023-02-17T11:46:01;95007.84;;;12.43;74.80
27643;BME280;15053;48.618;10.024;2023-02-17T11:48:46;95007.69;;;12.35;74.23
27643;BME280;15053;48.618;10.024;2023-02-17T11:51:21;95013.63;;;12.40;75.41
27643;BME280;15053;48.618;10.024;2023-02-17T11:54:04;95018.50;;;12.47;75.15
27643;BME280;15053;48.618;10.024;2023-02-17T11:56:36;95016.97;;;12.46;74.23
27643;BME280;15053;48.618;10.024;2023-02-17T12:02:16;95010.16;;;12.45;74.79
27643;BME280;15053;48.618;10.024;2023-02-17T12:05:29;95012.53;;;12.47;74.20
27643;BME280;15053;48.618;10.024;2023-02-17T12:08:17;95000.72;;;12.49;73.80
27643;BME280;15053;48.618;10.024;2023-02-17T12:11:03;95010.41;;;12.49;74.29
27643;BME280;15053;48.618;10.024;2023-02-17T12:16:22;95003.25;;;12.35;74.61
27643;BME280;15053;48.618;10.024;2023-02-17T12:19:07;94990.72;;;12.32;74.87
27643;BME280;15053;48.618;10.024;2023-02-17T12:30:45;95009.28;;;12.31;75.66
27643;BME280;15053;48.618;10.024;2023-02-17T12:33:39;95011.47;;;12.24;76.52
27643;BME280;15053;48.618;10.024;2023-02-17T12:36:12;95020.41;;;12.18;76.87
27643;BME280;15053;48.618;10.024;2023-02-17T12:38:49;95017.84;;;12.13;76.99
27643;BME280;15053;48.618;10.024;2023-02-17T12:43:59;95014.88;;;11.96;78.77
27643;BME280;15053;48.618;10.024;2023-02-17T12:46:40;95014.38;;;11.94;79.61
27643;BME280;15053;48.618;10.024;2023-02-17T12:49:13;95025.91;;;11.88;79.69
27643;BME280;15053;48.618;10.024;2023-02-17T12:51:49;95016.31;;;11.83;80.31
27643;BME280;15053;48.618;10.024;2023-02-17T12:56:56;95018.69;;;11.79;80.91
27643;BME280;15053;48.618;10.024;2023-02-17T12:59:36;95008.75;;;11.81;81.22
27643;BME280;15053;48.618;10.024;2023-02-17T13:02:24;95006.91;;;11.82;80.64
27643;BME280;15053;48.618;10.024;2023-02-17T13:04:53;95010.25;;;11.88;80.84
27643;BME280;15053;48.618;10.024;2023-02-17T13:07:44;95014.09;;;11.95;80.70
27643;BME280;15053;48.618;10.024;2023-02-17T13:10:30;95003.88;;;11.99;80.92
27643;BME280;15053;48.618;10.024;2023-02-17T13:13:06;95007.50;;;12.03;80.67
27643;BME280;15053;48.618;10.024;2023-02-17T13:15:36;95003.28;;;12.07;80.60
27643;BME280;15053;48.618;10.024;2023-02-17T13:18:11;95007.16;;;12.09;80.29
27643;BME280;15053;48.618;10.024;2023-02-17T13:24:05;94994.06;;;12.14;80.84
27643;BME280;15053;48.618;10.024;2023-02-17T13:26:42;94992.94;;;12.20;80.45
27643;BME280;15053;48.618;10.024;2023-02-17T13:31:49;94989.72;;;12.28;79.68
27643;BME280;15053;48.618;10.024;2023-02-17T13:36:56;94989.94;;;12.32;80.20
27643;BME280;15053;48.618;10.024;2023-02-17T13:41:58;95004.56;;;12.33;80.22
27643;BME280;15053;48.618;10.024;2023-02-17T13:44:38;95005.34;;;12.33;79.90
27643;BME280;15053;48.618;10.024;2023-02-17T13:47:13;95011.13;;;12.30;79.85
27643;BME280;15053;48.618;10.024;2023-02-17T13:49:41;95007.81;;;12.25;79.87
27643;BME280;15053;48.618;10.024;2023-02-17T13:52:09;95022.47;;;12.21;80.19
27643;BME280;15053;48.618;10.024;2023-02-17T13:54:36;95008.91;;;12.19;80.25
27643;BME280;15053;48.618;10.024;2023-02-17T13:57:02;95017.00;;;12.17;80.75
27643;BME280;15053;48.618;10.024;2023-02-17T13:59:29;95020.41;;;12.18;80.47
27643;BME280;15053;48.618;10.024;2023-02-17T14:01:55;95012.84;;;12.16;80.43
27643;BME280;15053;48.618;10.024;2023-02-17T14:04:28;95003.16;;;12.17;80.94
27643;BME280;15053;48.618;10.024;2023-02-17T14:07:02;94997.69;;;12.18;80.98
27643;BME280;15053;48.618;10.024;2023-02-17T14:09:31;95000.78;;;12.20;80.97
27643;BME280;15053;48.618;10.024;2023-02-17T14:12:02;95000.53;;;12.22;80.90
27643;BME280;15053;48.618;10.024;2023-02-17T14:14:36;95010.41;;;12.25;80.76